sensor_id;sensor_type;location;lat;lon;timestamp;pressure;altitude;pressure_sealevel;temperature;humidity
77662;BME280;67292;52.136;5.424;2023-04-09T00:00:11;102816.97;;;10.31;86.21
77662;BME280;67292;52.136;5.424;2023-04-09T00:02:39;102823.19;;;10.29;86.13
77662;BME280;67292;52.136;5.424;2023-04-09T00:05:06;102814.31;;;10.30;86.46
77662;BME280;67292;52.136;5.424;2023-04-09T00:07:33;102813.44;;;10.31;85.31
77662;BME280;67292;52.136;5.424;2023-04-09T00:10:00;102819.63;;;10.28;85.84
77662;BME280;67292;52.136;5.424;2023-04-09T00:12:26;102814.34;;;10.27;86.33
77662;BME280;67292;52.136;5.424;2023-04-09T00:14:55;102815.22;;;10.29;85.88
77662;BME280;67292;52.136;5.424;2023-04-09T00:17:23;102821.41;;;10.29;86.11
77662;BME280;67292;52.136;5.424;2023-04-09T00:19:50;102817.91;;;10.27;86.43
77662;BME280;67292;52.136;5.424;2023-04-09T00:22:17;102823.19;;;10.29;86.27
77662;BME280;67292;52.136;5.424;2023-04-09T00:24:43;102821.41;;;10.28;86.34
77662;BME280;67292;52.136;5.424;2023-04-09T00:27:10;102810.78;;;10.28;85.71
77662;BME280;67292;52.136;5.424;2023-04-09T00:29:36;102811.69;;;10.27;86.06
77662;BME280;67292;52.136;5.424;2023-04-09T00:32:03;102809.91;;;10.26;85.86
77662;BME280;67292;52.136;5.424;2023-04-09T00:34:30;102809.03;;;10.25;86.39
77662;BME280;67292;52.136;5.424;2023-04-09T00:36:56;102804.59;;;10.24;86.88
77662;BME280;67292;52.136;5.424;2023-04-09T00:39:23;102804.59;;;10.22;86.31
77662;BME280;67292;52.136;5.424;2023-04-09T00:41:49;102801.91;;;10.22;86.26
77662;BME280;67292;52.136;5.424;2023-04-09T00:44:16;102801.03;;;10.22;86.65
77662;BME280;67292;52.136;5.424;2023-04-09T00:46:42;102800.16;;;10.21;87.51
77662;BME280;67292;52.136;5.424;2023-04-09T00:49:09;102801.91;;;10.21;86.73
77662;BME280;67292;52.136;5.424;2023-04-09T00:51:36;102796.59;;;10.21;87.42
77662;BME280;67292;52.136;5.424;2023-04-09T00:54:04;102793.06;;;10.23;86.78
77662;BME280;67292;52.136;5.424;2023-04-09T00:56:31;102793.94;;;10.21;86.47
77662;BME280;67292;52.136;5.424;2023-04-09T00:58:58;102792.16;;;10.21;87.09
77662;BME280;67292;52.136;5.424;2023-04-09T01:01:25;102790.38;;;10.19;86.66
77662;BME280;67292;52.136;5.424;2023-04-09T01:03:51;102790.38;;;10.19;87.02
77662;BME280;67292;52.136;5.424;2023-04-09T01:09:33;102787.72;;;10.16;87.38
77662;BME280;67292;52.136;5.424;2023-04-09T01:12:17;102787.72;;;10.16;87.13
77662;BME280;67292;52.136;5.424;2023-04-09T01:15:07;102782.41;;;10.16;86.57
77662;BME280;67292;52.136;5.424;2023-04-09T01:18:00;102780.63;;;10.16;86.63
77662;BME280;67292;52.136;5.424;2023-04-09T01:20:46;102789.47;;;10.17;86.38
77662;BME280;67292;52.136;5.424;2023-04-09T01:23:31;102780.63;;;10.15;86.48
77662;BME280;67292;52.136;5.424;2023-04-09T01:26:06;102780.63;;;10.13;86.37
77662;BME280;67292;52.136;5.424;2023-04-09T01:28:42;102783.28;;;10.10;86.49
77662;BME280;67292;52.136;5.424;2023-04-09T01:31:13;102775.28;;;10.10;86.55
77662;BME280;67292;52.136;5.424;2023-04-09T01:33:41;102777.94;;;10.09;86.45
77662;BME280;67292;52.136;5.424;2023-04-09T01:36:08;102780.63;;;10.10;86.39
77662;BME280;67292;52.136;5.424;2023-04-09T01:38:39;102776.19;;;10.11;87.23
77662;BME280;67292;52.136;5.424;2023-04-09T01:41:11;102768.19;;;10.11;86.38
77662;BME280;67292;52.136;5.424;2023-04-09T01:43:41;102770.84;;;10.08;86.71
77662;BME280;67292;52.136;5.424;2023-04-09T01:46:09;102768.19;;;10.08;87.00
77662;BME280;67292;52.136;5.424;2023-04-09T01:48:38;102771.75;;;10.08;87.16
77662;BME280;67292;52.136;5.424;2023-04-09T01:51:04;102769.97;;;10.07;86.69
77662;BME280;67292;52.136;5.424;2023-04-09T01:53:31;102770.84;;;10.08;86.62
77662;BME280;67292;52.136;5.424;2023-04-09T01:55:59;102765.56;;;10.05;87.17
77662;BME280;67292;52.136;5.424;2023-04-09T01:58:26;102764.69;;;10.06;87.72
77662;BME280;67292;52.136;5.424;2023-04-09T02:01:15;102759.34;;;10.04;87.77
77662;BME280;67292;52.136;5.424;2023-04-09T02:03:53;102762.91;;;10.05;87.54
77662;BME280;67292;52.136;5.424;2023-04-09T02:09:29;102765.53;;;10.06;87.04
77662;BME280;67292;52.136;5.424;2023-04-09T02:12:02;102762.88;;;10.08;87.17
77662;BME280;67292;52.136;5.424;2023-04-09T02:14:31;102760.22;;;10.08;87.10
77662;BME280;67292;52.136;5.424;2023-04-09T02:16:59;102762.88;;;10.08;87.41
77662;BME280;67292;52.136;5.424;2023-04-09T02:19:37;102760.22;;;10.08;87.77
77662;BME280;67292;52.136;5.424;2023-04-09T02:22:04;102751.34;;;10.09;87.20
77662;BME280;67292;52.136;5.424;2023-04-09T02:24:31;102754.91;;;10.08;87.37
77662;BME280;67292;52.136;5.424;2023-04-09T02:26:58;102745.16;;;10.10;86.82
77662;BME280;67292;52.136;5.424;2023-04-09T02:29:24;102750.47;;;10.10;86.87
77662;BME280;67292;52.136;5.424;2023-04-09T02:31:51;102741.59;;;10.08;87.56
77662;BME280;67292;52.136;5.424;2023-04-09T02:34:19;102740.75;;;10.06;87.68
77662;BME280;67292;52.136;5.424;2023-04-09T02:36:45;102740.75;;;10.06;88.10
77662;BME280;67292;52.136;5.424;2023-04-09T02:39:12;102741.59;;;10.08;87.27
77662;BME280;67292;52.136;5.424;2023-04-09T02:41:39;102746.06;;;10.06;88.42
77662;BME280;67292;52.136;5.424;2023-04-09T02:44:06;102740.75;;;10.06;87.37
77662;BME280;67292;52.136;5.424;2023-04-09T02:46:32;102748.69;;;10.07;87.69
77662;BME280;67292;52.136;5.424;2023-04-09T02:48:59;102738.09;;;10.06;87.62
77662;BME280;67292;52.136;5.424;2023-04-09T02:51:26;102737.19;;;10.05;87.42
77662;BME280;67292;52.136;5.424;2023-04-09T02:53:53;102740.75;;;10.04;87.25
77662;BME280;67292;52.136;5.424;2023-04-09T02:56:19;102735.41;;;10.04;87.23
77662;BME280;67292;52.136;5.424;2023-04-09T02:58:46;102728.31;;;10.05;88.07
77662;BME280;67292;52.136;5.424;2023-04-09T03:01:14;102738.06;;;10.04;87.48
77662;BME280;67292;52.136;5.424;2023-04-09T03:03:41;102732.75;;;10.04;87.67
77662;BME280;67292;52.136;5.424;2023-04-09T03:06:08;102728.31;;;10.03;87.83
77662;BME280;67292;52.136;5.424;2023-04-09T03:08:35;102732.75;;;10.03;88.01
77662;BME280;67292;52.136;5.424;2023-04-09T03:11:01;102737.19;;;10.04;87.97
77662;BME280;67292;52.136;5.424;2023-04-09T03:13:28;102731.88;;;10.04;88.25
77662;BME280;67292;52.136;5.424;2023-04-09T03:15:55;102730.97;;;10.03;88.42
77662;BME280;67292;52.136;5.424;2023-04-09T03:18:21;102732.75;;;10.03;88.25
77662;BME280;67292;52.136;5.424;2023-04-09T03:20:48;102736.31;;;10.02;87.01
77662;BME280;67292;52.136;5.424;2023-04-09T03:23:14;102728.31;;;10.00;87.83
77662;BME280;67292;52.136;5.424;2023-04-09T03:25:41;102731.88;;;10.01;87.22
77662;BME280;67292;52.136;5.424;2023-04-09T03:28:08;102729.19;;;9.99;87.62
77662;BME280;67292;52.136;5.424;2023-04-09T03:30:34;102725.66;;;9.99;87.80
77662;BME280;67292;52.136;5.424;2023-04-09T03:33:01;102720.34;;;9.99;87.45
77662;BME280;67292;52.136;5.424;2023-04-09T03:35:28;102723.88;;;9.96;87.38
77662;BME280;67292;52.136;5.424;2023-04-09T03:37:54;102715.03;;;9.93;87.72
77662;BME280;67292;52.136;5.424;2023-04-09T03:40:21;102724.78;;;9.94;87.36
77662;BME280;67292;52.136;5.424;2023-04-09T03:42:47;102714.16;;;9.94;87.62
77662;BME280;67292;52.136;5.424;2023-04-09T03:45:14;102718.59;;;9.93;87.63
77662;BME280;67292;52.136;5.424;2023-04-09T03:47:40;102712.38;;;9.93;87.40
77662;BME280;67292;52.136;5.424;2023-04-09T03:50:07;102713.28;;;9.93;87.37
77662;BME280;67292;52.136;5.424;2023-04-09T03:52:34;102712.38;;;9.93;88.06
77662;BME280;67292;52.136;5.424;2023-04-09T03:55:02;102712.38;;;9.94;88.36
77662;BME280;67292;52.136;5.424;2023-04-09T03:57:28;102712.38;;;9.94;87.86
77662;BME280;67292;52.136;5.424;2023-04-09T03:59:55;102706.19;;;9.94;88.00
77662;BME280;67292;52.136;5.424;2023-04-09T04:02:21;102708.84;;;9.92;88.74
77662;BME280;67292;52.136;5.424;2023-04-09T04:04:48;102708.84;;;9.91;88.14
77662;BME280;67292;52.136;5.424;2023-04-09T04:07:15;102707.94;;;9.93;87.90
77662;BME280;67292;52.136;5.424;2023-04-09T04:09:41;102713.25;;;9.90;87.86
77662;BME280;67292;52.136;5.424;2023-04-09T04:12:08;102710.59;;;9.90;87.95
77662;BME280;67292;52.136;5.424;2023-04-09T04:14:35;102710.59;;;9.92;88.25
77662;BME280;67292;52.136;5.424;2023-04-09T04:17:01;102707.06;;;9.91;88.19
77662;BME280;67292;52.136;5.424;2023-04-09T04:19:28;102705.28;;;9.92;87.78
77662;BME280;67292;52.136;5.424;2023-04-09T04:21:54;102703.50;;;9.91;87.81
77662;BME280;67292;52.136;5.424;2023-04-09T04:24:21;102702.63;;;9.90;87.46
77662;BME280;67292;52.136;5.424;2023-04-09T04:26:47;102697.31;;;9.88;88.44
77662;BME280;67292;52.136;5.424;2023-04-09T04:29:14;102699.97;;;9.85;88.81
77662;BME280;67292;52.136;5.424;2023-04-09T04:31:40;102695.56;;;9.83;87.75
77662;BME280;67292;52.136;5.424;2023-04-09T04:34:07;102698.19;;;9.84;88.52
77662;BME280;67292;52.136;5.424;2023-04-09T04:36:35;102689.34;;;9.82;88.22
77662;BME280;67292;52.136;5.424;2023-04-09T04:39:02;102700.00;;;9.84;87.46
77662;BME280;67292;52.136;5.424;2023-04-09T04:41:29;102699.09;;;9.83;88.28
77662;BME280;67292;52.136;5.424;2023-04-09T04:43:56;102706.16;;;9.84;88.08
77662;BME280;67292;52.136;5.424;2023-04-09T04:46:23;102703.50;;;9.84;88.22
77662;BME280;67292;52.136;5.424;2023-04-09T04:48:49;102700.00;;;9.82;88.63
77662;BME280;67292;52.136;5.424;2023-04-09T04:51:16;102709.75;;;9.83;88.09
77662;BME280;67292;52.136;5.424;2023-04-09T04:53:43;102703.53;;;9.81;88.16
77662;BME280;67292;52.136;5.424;2023-04-09T04:56:13;102700.88;;;9.83;88.43
77662;BME280;67292;52.136;5.424;2023-04-09T04:58:40;102703.53;;;9.83;87.97
77662;BME280;67292;52.136;5.424;2023-04-09T05:01:07;102698.22;;;9.81;88.40
77662;BME280;67292;52.136;5.424;2023-04-09T05:03:34;102701.75;;;9.80;87.93
77662;BME280;67292;52.136;5.424;2023-04-09T05:06:00;102697.31;;;9.79;87.73
77662;BME280;67292;52.136;5.424;2023-04-09T05:08:27;102695.53;;;9.78;88.32
77662;BME280;67292;52.136;5.424;2023-04-09T05:10:54;102696.44;;;9.77;87.39
77662;BME280;67292;52.136;5.424;2023-04-09T05:13:23;102695.53;;;9.77;87.86
77662;BME280;67292;52.136;5.424;2023-04-09T05:15:50;102692.88;;;9.75;87.44
77662;BME280;67292;52.136;5.424;2023-04-09T05:18:17;102688.44;;;9.76;87.28
77662;BME280;67292;52.136;5.424;2023-04-09T05:20:43;102685.78;;;9.74;87.06
77662;BME280;67292;52.136;5.424;2023-04-09T05:23:10;102691.09;;;9.76;87.75
77662;BME280;67292;52.136;5.424;2023-04-09T05:25:38;102698.19;;;9.74;88.18
77662;BME280;67292;52.136;5.424;2023-04-09T05:28:04;102700.00;;;9.73;88.16
77662;BME280;67292;52.136;5.424;2023-04-09T05:30:31;102704.44;;;9.73;88.42
77662;BME280;67292;52.136;5.424;2023-04-09T05:32:58;102701.75;;;9.74;87.69
77662;BME280;67292;52.136;5.424;2023-04-09T05:35:24;102701.75;;;9.74;87.87
77662;BME280;67292;52.136;5.424;2023-04-09T05:37:51;102706.19;;;9.72;86.93
77662;BME280;67292;52.136;5.424;2023-04-09T05:40:18;102712.41;;;9.73;86.89
77662;BME280;67292;52.136;5.424;2023-04-09T05:42:44;102701.78;;;9.71;87.22
77662;BME280;67292;52.136;5.424;2023-04-09T05:45:11;102708.84;;;9.69;87.53
77662;BME280;67292;52.136;5.424;2023-04-09T05:47:38;102707.09;;;9.71;87.41
77662;BME280;67292;52.136;5.424;2023-04-09T05:50:04;102710.63;;;9.70;87.89
77662;BME280;67292;52.136;5.424;2023-04-09T05:52:31;102712.41;;;9.70;87.12
77662;BME280;67292;52.136;5.424;2023-04-09T05:54:58;102712.41;;;9.71;87.13
77662;BME280;67292;52.136;5.424;2023-04-09T05:57:24;102715.06;;;9.70;86.99
77662;BME280;67292;52.136;5.424;2023-04-09T05:59:51;102714.16;;;9.69;86.18
77662;BME280;67292;52.136;5.424;2023-04-09T06:02:18;102716.81;;;9.69;86.56
77662;BME280;67292;52.136;5.424;2023-04-09T06:04:44;102712.38;;;9.68;86.33
77662;BME280;67292;52.136;5.424;2023-04-09T06:07:11;102709.72;;;9.67;86.51
77662;BME280;67292;52.136;5.424;2023-04-09T06:09:38;102714.16;;;9.68;87.05
77662;BME280;67292;52.136;5.424;2023-04-09T06:12:04;102714.16;;;9.69;86.70
77662;BME280;67292;52.136;5.424;2023-04-09T06:14:31;102716.81;;;9.68;87.24
77662;BME280;67292;52.136;5.424;2023-04-09T06:16:58;102719.47;;;9.66;87.27
77662;BME280;67292;52.136;5.424;2023-04-09T06:19:25;102716.81;;;9.66;86.78
77662;BME280;67292;52.136;5.424;2023-04-09T06:21:51;102714.16;;;9.69;86.71
77662;BME280;67292;52.136;5.424;2023-04-09T06:24:18;102718.59;;;9.70;85.78
77662;BME280;67292;52.136;5.424;2023-04-09T06:26:45;102717.72;;;9.71;86.70
77662;BME280;67292;52.136;5.424;2023-04-09T06:29:11;102719.50;;;9.71;86.47
77662;BME280;67292;52.136;5.424;2023-04-09T06:31:38;102713.25;;;9.75;86.77
77662;BME280;67292;52.136;5.424;2023-04-09T06:34:05;102726.59;;;9.73;86.26
77662;BME280;67292;52.136;5.424;2023-04-09T06:36:32;102731.00;;;9.77;86.20
77662;BME280;67292;52.136;5.424;2023-04-09T06:38:58;102729.22;;;9.78;86.83
77662;BME280;67292;52.136;5.424;2023-04-09T06:41:25;102734.53;;;9.79;87.08
77662;BME280;67292;52.136;5.424;2023-04-09T06:43:52;102734.56;;;9.84;87.46
77662;BME280;67292;52.136;5.424;2023-04-09T06:46:19;102734.53;;;9.87;86.87
77662;BME280;67292;52.136;5.424;2023-04-09T06:48:46;102730.09;;;9.89;86.40
77662;BME280;67292;52.136;5.424;2023-04-09T06:51:13;102738.09;;;9.94;86.22
77662;BME280;67292;52.136;5.424;2023-04-09T06:53:40;102733.66;;;9.94;86.47
77662;BME280;67292;52.136;5.424;2023-04-09T06:56:07;102738.06;;;9.98;86.69
77662;BME280;67292;52.136;5.424;2023-04-09T06:58:34;102739.84;;;10.01;87.11
77662;BME280;67292;52.136;5.424;2023-04-09T07:01:01;102738.06;;;10.01;86.93
77662;BME280;67292;52.136;5.424;2023-04-09T07:03:28;102740.72;;;10.01;86.37
77662;BME280;67292;52.136;5.424;2023-04-09T07:05:54;102737.19;;;10.04;87.02
77662;BME280;67292;52.136;5.424;2023-04-09T07:08:22;102738.06;;;10.04;86.96
77662;BME280;67292;52.136;5.424;2023-04-09T07:10:49;102736.28;;;10.06;86.75
77662;BME280;67292;52.136;5.424;2023-04-09T07:13:16;102737.16;;;10.08;85.54
77662;BME280;67292;52.136;5.424;2023-04-09T07:15:42;102736.28;;;10.14;85.97
77662;BME280;67292;52.136;5.424;2023-04-09T07:18:09;102734.53;;;10.20;86.49
77662;BME280;67292;52.136;5.424;2023-04-09T07:20:36;102733.63;;;10.29;85.75
77662;BME280;67292;52.136;5.424;2023-04-09T07:23:03;102749.59;;;10.38;85.60
77662;BME280;67292;52.136;5.424;2023-04-09T07:25:29;102746.00;;;10.45;84.37
77662;BME280;67292;52.136;5.424;2023-04-09T07:27:56;102741.53;;;10.52;84.67
77662;BME280;67292;52.136;5.424;2023-04-09T07:30:23;102742.38;;;10.61;83.95
77662;BME280;67292;52.136;5.424;2023-04-09T07:32:49;102743.22;;;10.71;83.67
77662;BME280;67292;52.136;5.424;2023-04-09T07:35:17;102743.19;;;10.83;83.30
77662;BME280;67292;52.136;5.424;2023-04-09T07:37:44;102743.13;;;10.98;83.49
77662;BME280;67292;52.136;5.424;2023-04-09T07:40:10;102751.06;;;11.08;82.68
77662;BME280;67292;52.136;5.424;2023-04-09T07:42:37;102749.22;;;11.20;83.59
77662;BME280;67292;52.136;5.424;2023-04-09T07:45:05;102742.94;;;11.32;82.21
77662;BME280;67292;52.136;5.424;2023-04-09T07:47:32;102740.19;;;11.46;81.11
77662;BME280;67292;52.136;5.424;2023-04-09T07:49:59;102736.56;;;11.56;82.62
77662;BME280;67292;52.136;5.424;2023-04-09T07:52:25;102730.19;;;11.70;81.93
77662;BME280;67292;52.136;5.424;2023-04-09T07:54:52;102746.13;;;11.84;79.89
77662;BME280;67292;52.136;5.424;2023-04-09T07:57:18;102735.28;;;12.01;80.96
77662;BME280;67292;52.136;5.424;2023-04-09T07:59:45;102739.63;;;12.16;79.29
77662;BME280;67292;52.136;5.424;2023-04-09T08:02:12;102735.91;;;12.32;78.30
77662;BME280;67292;52.136;5.424;2023-04-09T08:04:40;102727.72;;;12.44;78.38
77662;BME280;67292;52.136;5.424;2023-04-09T08:07:07;102725.88;;;12.54;78.13
77662;BME280;67292;52.136;5.424;2023-04-09T08:09:34;102731.97;;;12.63;76.26
77662;BME280;67292;52.136;5.424;2023-04-09T08:12:01;102731.69;;;12.86;78.24
77662;BME280;67292;52.136;5.424;2023-04-09T08:14:27;102725.16;;;13.07;76.63
77662;BME280;67292;52.136;5.424;2023-04-09T08:16:54;102725.75;;;13.30;77.10
77662;BME280;67292;52.136;5.424;2023-04-09T08:19:21;102722.69;;;13.55;76.93
77662;BME280;67292;52.136;5.424;2023-04-09T08:21:48;102724.19;;;13.72;76.51
77662;BME280;67292;52.136;5.424;2023-04-09T08:24:15;102721.25;;;13.87;76.08
77662;BME280;67292;52.136;5.424;2023-04-09T08:26:42;102721.78;;;14.06;76.65
77662;BME280;67292;52.136;5.424;2023-04-09T08:29:10;102724.81;;;14.36;75.26
77662;BME280;67292;52.136;5.424;2023-04-09T08:31:38;102728.91;;;14.56;74.23
77662;BME280;67292;52.136;5.424;2023-04-09T08:34:05;102730.28;;;14.76;74.55
77662;BME280;67292;52.136;5.424;2023-04-09T08:36:32;102727.56;;;14.77;73.41
77662;BME280;67292;52.136;5.424;2023-04-09T08:39:00;102732.28;;;14.66;70.87
77662;BME280;67292;52.136;5.424;2023-04-09T08:41:28;102728.44;;;14.79;72.59
77662;BME280;67292;52.136;5.424;2023-04-09T08:43:56;102725.44;;;14.93;74.16
77662;BME280;67292;52.136;5.424;2023-04-09T08:46:25;102721.44;;;15.14;73.33
77662;BME280;67292;52.136;5.424;2023-04-09T08:48:52;102718.91;;;15.45;70.71
77662;BME280;67292;52.136;5.424;2023-04-09T08:51:22;102720.66;;;15.46;70.24
77662;BME280;67292;52.136;5.424;2023-04-09T08:53:57;102722.84;;;15.28;71.29
77662;BME280;67292;52.136;5.424;2023-04-09T08:56:28;102715.22;;;15.12;71.73
77662;BME280;67292;52.136;5.424;2023-04-09T08:58:55;102719.97;;;14.99;69.95
77662;BME280;67292;52.136;5.424;2023-04-09T09:04:03;102719.06;;;14.98;71.25
77662;BME280;67292;52.136;5.424;2023-04-09T09:06:33;102715.19;;;15.13;72.54
77662;BME280;67292;52.136;5.424;2023-04-09T09:09:07;102710.91;;;15.42;72.82
77662;BME280;67292;52.136;5.424;2023-04-09T09:11:36;102707.81;;;15.60;71.41
77662;BME280;67292;52.136;5.424;2023-04-09T09:14:08;102705.13;;;15.95;71.69
77662;BME280;67292;52.136;5.424;2023-04-09T09:16:38;102702.09;;;16.08;70.25
77662;BME280;67292;52.136;5.424;2023-04-09T09:19:09;102700.44;;;16.34;67.86
77662;BME280;67292;52.136;5.424;2023-04-09T09:21:36;102704.47;;;16.51;71.01
77662;BME280;67292;52.136;5.424;2023-04-09T09:24:15;102703.44;;;16.87;69.28
77662;BME280;67292;52.136;5.424;2023-04-09T09:26:43;102700.25;;;17.02;69.01
77662;BME280;67292;52.136;5.424;2023-04-09T09:29:09;102699.78;;;17.18;71.15
77662;BME280;67292;52.136;5.424;2023-04-09T09:31:48;102690.84;;;17.17;68.87
77662;BME280;67292;52.136;5.424;2023-04-09T09:34:16;102685.47;;;17.17;66.34
77662;BME280;67292;52.136;5.424;2023-04-09T09:36:44;102686.31;;;17.19;65.28
77662;BME280;67292;52.136;5.424;2023-04-09T09:39:13;102682.41;;;17.00;65.72
77662;BME280;67292;52.136;5.424;2023-04-09T09:41:40;102690.66;;;16.94;66.33
77662;BME280;67292;52.136;5.424;2023-04-09T09:44:11;102686.13;;;16.96;64.35
77662;BME280;67292;52.136;5.424;2023-04-09T09:46:39;102682.72;;;16.89;66.61
77662;BME280;67292;52.136;5.424;2023-04-09T09:49:12;102676.50;;;17.17;67.50
77662;BME280;67292;52.136;5.424;2023-04-09T09:51:40;102676.75;;;17.37;64.05
77662;BME280;67292;52.136;5.424;2023-04-09T09:54:07;102672.91;;;17.72;66.21
77662;BME280;67292;52.136;5.424;2023-04-09T09:56:38;102676.72;;;17.91;65.13
77662;BME280;67292;52.136;5.424;2023-04-09T10:01:39;102679.81;;;18.29;63.01
77662;BME280;67292;52.136;5.424;2023-04-09T10:04:08;102673.63;;;18.50;61.79
77662;BME280;67292;52.136;5.424;2023-04-09T10:06:43;102670.94;;;18.50;65.12
77662;BME280;67292;52.136;5.424;2023-04-09T10:09:10;102665.31;;;18.81;64.99
77662;BME280;67292;52.136;5.424;2023-04-09T10:11:38;102664.47;;;19.02;63.92
77662;BME280;67292;52.136;5.424;2023-04-09T10:14:08;102654.59;;;19.01;66.08
77662;BME280;67292;52.136;5.424;2023-04-09T10:16:35;102667.06;;;19.04;63.02
77662;BME280;67292;52.136;5.424;2023-04-09T10:19:03;102649.78;;;19.09;61.66
77662;BME280;67292;52.136;5.424;2023-04-09T10:21:44;102644.63;;;19.03;61.32
77662;BME280;67292;52.136;5.424;2023-04-09T10:24:15;102635.34;;;19.10;61.15
77662;BME280;67292;52.136;5.424;2023-04-09T10:26:42;102644.00;;;19.18;62.97
77662;BME280;67292;52.136;5.424;2023-04-09T10:29:14;102623.59;;;19.33;61.51
77662;BME280;67292;52.136;5.424;2023-04-09T10:31:52;102624.66;;;19.29;61.09
77662;BME280;67292;52.136;5.424;2023-04-09T10:34:23;102614.63;;;19.32;62.08
77662;BME280;67292;52.136;5.424;2023-04-09T10:36:55;102620.91;;;19.55;60.38
77662;BME280;67292;52.136;5.424;2023-04-09T10:39:32;102618.78;;;19.61;63.42
77662;BME280;67292;52.136;5.424;2023-04-09T10:42:00;102621.31;;;19.66;61.71
77662;BME280;67292;52.136;5.424;2023-04-09T10:44:32;102608.63;;;19.68;58.43
77662;BME280;67292;52.136;5.424;2023-04-09T10:47:02;102613.50;;;19.58;58.41
77662;BME280;67292;52.136;5.424;2023-04-09T10:49:36;102611.44;;;19.65;59.02
77662;BME280;67292;52.136;5.424;2023-04-09T10:52:04;102606.88;;;19.67;60.58
77662;BME280;67292;52.136;5.424;2023-04-09T10:59:42;102594.41;;;19.63;57.11
77662;BME280;67292;52.136;5.424;2023-04-09T11:07:47;102587.84;;;19.26;59.04
77662;BME280;67292;52.136;5.424;2023-04-09T11:10:15;102582.94;;;19.36;59.37
77662;BME280;67292;52.136;5.424;2023-04-09T11:12:41;102584.22;;;19.27;55.00
77662;BME280;67292;52.136;5.424;2023-04-09T11:15:15;102583.78;;;19.16;55.92
77662;BME280;67292;52.136;5.424;2023-04-09T11:17:44;102598.09;;;18.96;53.53
77662;BME280;67292;52.136;5.424;2023-04-09T11:20:13;102584.94;;;18.89;58.66
77662;BME280;67292;52.136;5.424;2023-04-09T11:22:40;102573.00;;;18.94;60.03
77662;BME280;67292;52.136;5.424;2023-04-09T11:25:07;102585.72;;;18.92;58.67
77662;BME280;67292;52.136;5.424;2023-04-09T11:27:37;102577.97;;;18.83;55.12
77662;BME280;67292;52.136;5.424;2023-04-09T11:30:04;102582.47;;;18.83;56.51
77662;BME280;67292;52.136;5.424;2023-04-09T11:32:32;102581.03;;;18.74;55.20
77662;BME280;67292;52.136;5.424;2023-04-09T11:34:58;102576.06;;;18.64;52.98
77662;BME280;67292;52.136;5.424;2023-04-09T11:37:25;102575.72;;;18.49;54.75
77662;BME280;67292;52.136;5.424;2023-04-09T11:39:53;102574.44;;;18.59;54.72
77662;BME280;67292;52.136;5.424;2023-04-09T11:42:23;102584.19;;;18.39;53.81
77662;BME280;67292;52.136;5.424;2023-04-09T11:44:52;102580.66;;;18.38;54.33
77662;BME280;67292;52.136;5.424;2023-04-09T11:47:20;102584.50;;;18.31;57.21
77662;BME280;67292;52.136;5.424;2023-04-09T11:49:47;102588.34;;;18.01;53.78
77662;BME280;67292;52.136;5.424;2023-04-09T11:52:14;102578.69;;;17.70;53.90
77662;BME280;67292;52.136;5.424;2023-04-09T11:54:50;102582.38;;;17.68;58.07
77662;BME280;67292;52.136;5.424;2023-04-09T11:57:16;102572.97;;;17.79;57.68
77662;BME280;67292;52.136;5.424;2023-04-09T11:59:43;102565.72;;;17.81;57.54
77662;BME280;67292;52.136;5.424;2023-04-09T12:02:10;102574.75;;;17.80;54.30
77662;BME280;67292;52.136;5.424;2023-04-09T12:04:48;102574.97;;;17.48;53.84
77662;BME280;67292;52.136;5.424;2023-04-09T12:07:14;102578.09;;;17.36;55.85
77662;BME280;67292;52.136;5.424;2023-04-09T12:09:48;102571.56;;;17.17;55.77
77662;BME280;67292;52.136;5.424;2023-04-09T12:12:19;102563.06;;;17.02;57.22
77662;BME280;67292;52.136;5.424;2023-04-09T12:14:46;102562.25;;;17.00;55.76
77662;BME280;67292;52.136;5.424;2023-04-09T12:17:13;102559.78;;;16.94;56.17
77662;BME280;67292;52.136;5.424;2023-04-09T12:19:39;102565.97;;;16.96;54.59
77662;BME280;67292;52.136;5.424;2023-04-09T12:22:06;102558.78;;;16.97;57.12
77662;BME280;67292;52.136;5.424;2023-04-09T12:24:33;102562.41;;;16.96;54.00
77662;BME280;67292;52.136;5.424;2023-04-09T12:26:59;102557.66;;;17.04;57.83
77662;BME280;67292;52.136;5.424;2023-04-09T12:29:27;102556.78;;;17.03;58.19
77662;BME280;67292;52.136;5.424;2023-04-09T12:31:55;102551.16;;;17.09;53.12
77662;BME280;67292;52.136;5.424;2023-04-09T12:34:21;102564.53;;;17.12;56.10
77662;BME280;67292;52.136;5.424;2023-04-09T12:36:48;102553.94;;;17.08;54.95
77662;BME280;67292;52.136;5.424;2023-04-09T12:39:15;102555.00;;;17.02;54.98
77662;BME280;67292;52.136;5.424;2023-04-09T12:41:42;102564.09;;;16.98;55.76
77662;BME280;67292;52.136;5.424;2023-04-09T12:44:08;102557.56;;;17.07;55.89
77662;BME280;67292;52.136;5.424;2023-04-09T12:46:35;102554.56;;;17.16;58.21
77662;BME280;67292;52.136;5.424;2023-04-09T12:49:02;102546.31;;;17.21;55.98
77662;BME280;67292;52.136;5.424;2023-04-09T12:51:29;102544.44;;;17.23;54.01
77662;BME280;67292;52.136;5.424;2023-04-09T12:53:56;102554.00;;;17.31;56.65
77662;BME280;67292;52.136;5.424;2023-04-09T12:56:22;102553.88;;;17.36;55.22
77662;BME280;67292;52.136;5.424;2023-04-09T12:58:50;102541.38;;;17.33;52.34
77662;BME280;67292;52.136;5.424;2023-04-09T13:01:17;102545.69;;;17.39;55.03
77662;BME280;67292;52.136;5.424;2023-04-09T13:03:43;102549.22;;;17.41;54.76
77662;BME280;67292;52.136;5.424;2023-04-09T13:06:10;102548.56;;;17.33;54.36
77662;BME280;67292;52.136;5.424;2023-04-09T13:08:37;102548.47;;;17.36;54.89
77662;BME280;67292;52.136;5.424;2023-04-09T13:11:04;102542.38;;;17.31;54.92
77662;BME280;67292;52.136;5.424;2023-04-09T13:13:31;102546.81;;;17.32;53.77
77662;BME280;67292;52.136;5.424;2023-04-09T13:15:57;102541.06;;;17.18;53.37
77662;BME280;67292;52.136;5.424;2023-04-09T13:18:24;102534.88;;;17.14;55.54